sensor_id;sensor_type;location;lat;lon;timestamp;P1;durP1;ratioP1;P2;durP2;ratioP2
70414;SDS011;57837;52.064;113.478;2023-05-07T00:01:11;8.05;;;4.07;;
70414;SDS011;57837;52.064;113.478;2023-05-07T00:04:14;12.48;;;4.55;;
70414;SDS011;57837;52.064;113.478;2023-05-07T00:07:18;7.95;;;4.03;;
70414;SDS011;57837;52.064;113.478;2023-05-07T00:10:22;7.03;;;4.03;;
70414;SDS011;57837;52.064;113.478;2023-05-07T00:13:26;13.10;;;4.07;;
70414;SDS011;57837;52.064;113.478;2023-05-07T00:16:30;10.30;;;3.85;;
70414;SDS011;57837;52.064;113.478;2023-05-07T00:19:33;13.18;;;4.18;;
70414;SDS011;57837;52.064;113.478;2023-05-07T00:22:37;10.65;;;4.30;;
70414;SDS011;57837;52.064;113.478;2023-05-07T00:25:40;11.57;;;4.70;;
70414;SDS011;57837;52.064;113.478;2023-05-07T00:28:44;210.77;;;17.33;;
70414;SDS011;57837;52.064;113.478;2023-05-07T00:31:48;11.05;;;4.32;;
70414;SDS011;57837;52.064;113.478;2023-05-07T00:34:53;18.75;;;8.02;;
70414;SDS011;57837;52.064;113.478;2023-05-07T00:37:56;28.98;;;13.55;;
70414;SDS011;57837;52.064;113.478;2023-05-07T00:40:59;23.70;;;13.97;;
70414;SDS011;57837;52.064;113.478;2023-05-07T00:44:03;26.30;;;17.90;;
70414;SDS011;57837;52.064;113.478;2023-05-07T00:47:07;17.40;;;10.07;;
70414;SDS011;57837;52.064;113.478;2023-05-07T00:50:10;12.02;;;7.05;;
70414;SDS011;57837;52.064;113.478;2023-05-07T00:53:16;16.35;;;8.73;;
70414;SDS011;57837;52.064;113.478;2023-05-07T00:56:22;12.70;;;6.50;;
70414;SDS011;57837;52.064;113.478;2023-05-07T00:59:26;9.15;;;5.13;;
70414;SDS011;57837;52.064;113.478;2023-05-07T01:02:29;14.30;;;5.00;;
70414;SDS011;57837;52.064;113.478;2023-05-07T01:05:34;10.35;;;4.75;;
70414;SDS011;57837;52.064;113.478;2023-05-07T01:08:39;11.00;;;5.18;;
70414;SDS011;57837;52.064;113.478;2023-05-07T01:11:43;7.03;;;4.73;;
70414;SDS011;57837;52.064;113.478;2023-05-07T01:14:47;11.95;;;5.75;;
70414;SDS011;57837;52.064;113.478;2023-05-07T01:17:51;23.77;;;7.40;;
70414;SDS011;57837;52.064;113.478;2023-05-07T01:21:02;10.90;;;6.50;;
70414;SDS011;57837;52.064;113.478;2023-05-07T01:24:07;21.95;;;6.65;;
70414;SDS011;57837;52.064;113.478;2023-05-07T01:27:10;12.90;;;6.57;;
70414;SDS011;57837;52.064;113.478;2023-05-07T01:30:14;12.23;;;6.60;;
70414;SDS011;57837;52.064;113.478;2023-05-07T01:33:20;15.27;;;7.20;;
70414;SDS011;57837;52.064;113.478;2023-05-07T01:36:25;24.60;;;8.35;;
70414;SDS011;57837;52.064;113.478;2023-05-07T01:39:29;28.77;;;7.97;;
70414;SDS011;57837;52.064;113.478;2023-05-07T01:42:33;24.03;;;7.33;;
70414;SDS011;57837;52.064;113.478;2023-05-07T01:45:36;26.67;;;8.30;;
70414;SDS011;57837;52.064;113.478;2023-05-07T01:48:41;20.83;;;9.60;;
70414;SDS011;57837;52.064;113.478;2023-05-07T01:51:48;23.63;;;8.45;;
70414;SDS011;57837;52.064;113.478;2023-05-07T01:54:52;26.35;;;7.53;;
70414;SDS011;57837;52.064;113.478;2023-05-07T01:57:56;17.17;;;6.53;;
70414;SDS011;57837;52.064;113.478;2023-05-07T02:01:00;24.00;;;8.05;;
70414;SDS011;57837;52.064;113.478;2023-05-07T02:04:04;14.15;;;7.03;;
70414;SDS011;57837;52.064;113.478;2023-05-07T02:07:08;12.38;;;7.65;;
70414;SDS011;57837;52.064;113.478;2023-05-07T02:10:12;16.20;;;7.78;;
70414;SDS011;57837;52.064;113.478;2023-05-07T02:13:15;18.33;;;9.43;;
70414;SDS011;57837;52.064;113.478;2023-05-07T02:16:19;28.00;;;10.65;;
70414;SDS011;57837;52.064;113.478;2023-05-07T02:19:22;15.57;;;7.40;;
70414;SDS011;57837;52.064;113.478;2023-05-07T02:22:26;11.50;;;7.50;;
70414;SDS011;57837;52.064;113.478;2023-05-07T02:25:30;12.77;;;7.15;;
70414;SDS011;57837;52.064;113.478;2023-05-07T02:28:33;15.40;;;7.50;;
70414;SDS011;57837;52.064;113.478;2023-05-07T02:31:39;13.95;;;7.05;;
70414;SDS011;57837;52.064;113.478;2023-05-07T02:34:43;13.07;;;7.07;;
70414;SDS011;57837;52.064;113.478;2023-05-07T02:37:47;15.98;;;7.50;;
70414;SDS011;57837;52.064;113.478;2023-05-07T02:40:50;17.30;;;6.40;;
70414;SDS011;57837;52.064;113.478;2023-05-07T02:43:53;10.73;;;6.73;;
70414;SDS011;57837;52.064;113.478;2023-05-07T02:46:57;12.90;;;6.63;;
70414;SDS011;57837;52.064;113.478;2023-05-07T02:50:01;11.95;;;5.93;;
70414;SDS011;57837;52.064;113.478;2023-05-07T02:53:04;19.88;;;7.05;;
70414;SDS011;57837;52.064;113.478;2023-05-07T02:56:08;22.42;;;7.13;;
70414;SDS011;57837;52.064;113.478;2023-05-07T02:59:11;14.70;;;6.63;;
70414;SDS011;57837;52.064;113.478;2023-05-07T03:02:16;11.00;;;6.70;;
70414;SDS011;57837;52.064;113.478;2023-05-07T03:05:19;16.65;;;6.30;;
70414;SDS011;57837;52.064;113.478;2023-05-07T03:08:22;30.42;;;7.25;;
70414;SDS011;57837;52.064;113.478;2023-05-07T03:11:25;26.05;;;6.95;;
70414;SDS011;57837;52.064;113.478;2023-05-07T03:14:28;177.70;;;16.73;;
70414;SDS011;57837;52.064;113.478;2023-05-07T03:17:32;36.22;;;7.45;;
70414;SDS011;57837;52.064;113.478;2023-05-07T03:20:35;37.92;;;7.22;;
70414;SDS011;57837;52.064;113.478;2023-05-07T03:23:39;50.90;;;7.93;;
70414;SDS011;57837;52.064;113.478;2023-05-07T03:26:43;19.00;;;7.30;;
70414;SDS011;57837;52.064;113.478;2023-05-07T03:29:46;29.00;;;7.50;;
70414;SDS011;57837;52.064;113.478;2023-05-07T03:32:50;38.65;;;8.80;;
70414;SDS011;57837;52.064;113.478;2023-05-07T03:35:54;42.80;;;8.20;;
70414;SDS011;57837;52.064;113.478;2023-05-07T03:38:59;18.15;;;7.20;;
70414;SDS011;57837;52.064;113.478;2023-05-07T03:42:10;29.42;;;7.22;;
70414;SDS011;57837;52.064;113.478;2023-05-07T03:45:14;65.77;;;10.17;;
70414;SDS011;57837;52.064;113.478;2023-05-07T03:48:24;28.48;;;7.55;;
70414;SDS011;57837;52.064;113.478;2023-05-07T03:51:31;50.63;;;8.30;;
70414;SDS011;57837;52.064;113.478;2023-05-07T03:54:35;20.20;;;6.72;;
70414;SDS011;57837;52.064;113.478;2023-05-07T03:57:38;31.13;;;7.40;;
70414;SDS011;57837;52.064;113.478;2023-05-07T04:00:43;20.93;;;7.20;;
70414;SDS011;57837;52.064;113.478;2023-05-07T04:04:05;54.45;;;8.13;;
70414;SDS011;57837;52.064;113.478;2023-05-07T04:07:10;34.30;;;7.53;;
70414;SDS011;57837;52.064;113.478;2023-05-07T04:10:17;27.88;;;7.22;;
70414;SDS011;57837;52.064;113.478;2023-05-07T04:13:24;20.40;;;6.35;;
70414;SDS011;57837;52.064;113.478;2023-05-07T04:16:29;15.00;;;6.00;;
70414;SDS011;57837;52.064;113.478;2023-05-07T04:19:33;19.63;;;6.20;;
70414;SDS011;57837;52.064;113.478;2023-05-07T04:22:37;22.95;;;6.32;;
70414;SDS011;57837;52.064;113.478;2023-05-07T04:25:41;15.00;;;5.97;;
70414;SDS011;57837;52.064;113.478;2023-05-07T04:29:03;18.88;;;6.20;;
70414;SDS011;57837;52.064;113.478;2023-05-07T04:32:09;22.27;;;5.63;;
70414;SDS011;57837;52.064;113.478;2023-05-07T04:35:14;12.40;;;4.65;;
70414;SDS011;57837;52.064;113.478;2023-05-07T04:38:17;45.83;;;6.45;;
70414;SDS011;57837;52.064;113.478;2023-05-07T04:41:23;79.97;;;9.40;;
70414;SDS011;57837;52.064;113.478;2023-05-07T04:44:27;27.15;;;5.60;;
70414;SDS011;57837;52.064;113.478;2023-05-07T04:47:33;42.80;;;7.33;;
70414;SDS011;57837;52.064;113.478;2023-05-07T04:50:37;29.63;;;6.15;;
70414;SDS011;57837;52.064;113.478;2023-05-07T04:53:41;37.90;;;6.35;;
70414;SDS011;57837;52.064;113.478;2023-05-07T04:56:45;14.60;;;4.85;;
70414;SDS011;57837;52.064;113.478;2023-05-07T04:59:49;18.73;;;5.30;;
70414;SDS011;57837;52.064;113.478;2023-05-07T05:02:52;15.33;;;4.63;;
70414;SDS011;57837;52.064;113.478;2023-05-07T05:05:56;13.23;;;4.40;;
70414;SDS011;57837;52.064;113.478;2023-05-07T05:09:06;11.73;;;4.07;;
70414;SDS011;57837;52.064;113.478;2023-05-07T05:12:09;23.23;;;4.40;;
70414;SDS011;57837;52.064;113.478;2023-05-07T05:15:13;27.77;;;4.95;;
70414;SDS011;57837;52.064;113.478;2023-05-07T05:18:16;74.57;;;7.03;;
70414;SDS011;57837;52.064;113.478;2023-05-07T05:21:20;40.95;;;5.22;;
70414;SDS011;57837;52.064;113.478;2023-05-07T05:24:30;73.88;;;6.45;;
70414;SDS011;57837;52.064;113.478;2023-05-07T05:27:35;36.38;;;4.85;;
70414;SDS011;57837;52.064;113.478;2023-05-07T05:30:39;86.95;;;7.75;;
70414;SDS011;57837;52.064;113.478;2023-05-07T05:33:43;151.60;;;13.03;;
70414;SDS011;57837;52.064;113.478;2023-05-07T05:36:47;38.33;;;5.07;;
70414;SDS011;57837;52.064;113.478;2023-05-07T05:39:53;93.57;;;8.20;;
70414;SDS011;57837;52.064;113.478;2023-05-07T05:42:59;85.95;;;8.30;;
70414;SDS011;57837;52.064;113.478;2023-05-07T05:46:03;66.55;;;6.60;;
70414;SDS011;57837;52.064;113.478;2023-05-07T05:49:08;99.77;;;8.43;;
70414;SDS011;57837;52.064;113.478;2023-05-07T05:52:13;41.30;;;5.18;;
70414;SDS011;57837;52.064;113.478;2023-05-07T05:55:17;16.13;;;4.20;;
70414;SDS011;57837;52.064;113.478;2023-05-07T05:58:21;29.55;;;3.90;;
70414;SDS011;57837;52.064;113.478;2023-05-07T06:01:31;63.70;;;5.80;;
70414;SDS011;57837;52.064;113.478;2023-05-07T06:04:37;69.80;;;7.03;;
70414;SDS011;57837;52.064;113.478;2023-05-07T06:07:41;19.35;;;3.15;;
70414;SDS011;57837;52.064;113.478;2023-05-07T06:10:45;73.25;;;6.65;;
70414;SDS011;57837;52.064;113.478;2023-05-07T06:13:50;53.90;;;6.22;;
70414;SDS011;57837;52.064;113.478;2023-05-07T06:16:53;115.43;;;9.98;;
70414;SDS011;57837;52.064;113.478;2023-05-07T06:19:57;16.20;;;3.50;;
70414;SDS011;57837;52.064;113.478;2023-05-07T06:23:01;13.27;;;3.53;;
70414;SDS011;57837;52.064;113.478;2023-05-07T06:26:07;15.50;;;3.40;;
70414;SDS011;57837;52.064;113.478;2023-05-07T06:29:15;112.28;;;9.73;;
70414;SDS011;57837;52.064;113.478;2023-05-07T06:32:19;30.05;;;4.32;;
70414;SDS011;57837;52.064;113.478;2023-05-07T06:35:25;16.67;;;3.43;;
70414;SDS011;57837;52.064;113.478;2023-05-07T06:38:29;115.68;;;10.68;;
70414;SDS011;57837;52.064;113.478;2023-05-07T06:41:32;29.23;;;4.03;;
70414;SDS011;57837;52.064;113.478;2023-05-07T06:44:42;98.25;;;8.57;;
70414;SDS011;57837;52.064;113.478;2023-05-07T06:47:48;79.45;;;7.13;;
70414;SDS011;57837;52.064;113.478;2023-05-07T06:50:52;191.20;;;13.53;;
70414;SDS011;57837;52.064;113.478;2023-05-07T06:53:59;60.88;;;4.20;;
70414;SDS011;57837;52.064;113.478;2023-05-07T06:57:04;56.22;;;4.97;;
70414;SDS011;57837;52.064;113.478;2023-05-07T07:00:08;28.08;;;3.50;;
70414;SDS011;57837;52.064;113.478;2023-05-07T07:03:24;60.88;;;5.97;;
70414;SDS011;57837;52.064;113.478;2023-05-07T07:06:30;32.77;;;3.23;;
70414;SDS011;57837;52.064;113.478;2023-05-07T07:09:38;70.40;;;5.38;;
70414;SDS011;57837;52.064;113.478;2023-05-07T07:12:43;64.88;;;5.78;;
70414;SDS011;57837;52.064;113.478;2023-05-07T07:15:47;130.40;;;9.05;;
70414;SDS011;57837;52.064;113.478;2023-05-07T07:18:52;19.50;;;2.85;;
70414;SDS011;57837;52.064;113.478;2023-05-07T07:21:55;37.17;;;3.33;;
70414;SDS011;57837;52.064;113.478;2023-05-07T07:24:59;43.92;;;4.32;;
70414;SDS011;57837;52.064;113.478;2023-05-07T07:28:05;106.38;;;7.75;;
70414;SDS011;57837;52.064;113.478;2023-05-07T07:31:11;50.65;;;4.88;;
70414;SDS011;57837;52.064;113.478;2023-05-07T07:34:16;29.92;;;3.42;;
70414;SDS011;57837;52.064;113.478;2023-05-07T07:37:20;57.40;;;4.60;;
70414;SDS011;57837;52.064;113.478;2023-05-07T07:40:24;43.70;;;3.47;;
70414;SDS011;57837;52.064;113.478;2023-05-07T07:43:28;33.05;;;2.97;;
70414;SDS011;57837;52.064;113.478;2023-05-07T07:46:33;102.35;;;9.02;;
70414;SDS011;57837;52.064;113.478;2023-05-07T07:49:37;69.30;;;6.10;;
70414;SDS011;57837;52.064;113.478;2023-05-07T07:52:43;37.83;;;5.00;;
70414;SDS011;57837;52.064;113.478;2023-05-07T07:55:50;24.10;;;2.88;;
70414;SDS011;57837;52.064;113.478;2023-05-07T07:59:01;61.20;;;5.05;;
70414;SDS011;57837;52.064;113.478;2023-05-07T08:02:07;26.45;;;2.65;;
70414;SDS011;57837;52.064;113.478;2023-05-07T08:05:12;86.85;;;5.50;;
70414;SDS011;57837;52.064;113.478;2023-05-07T08:08:15;54.53;;;4.50;;
70414;SDS011;57837;52.064;113.478;2023-05-07T08:11:20;57.45;;;4.55;;
70414;SDS011;57837;52.064;113.478;2023-05-07T08:14:25;31.83;;;3.40;;
70414;SDS011;57837;52.064;113.478;2023-05-07T08:17:31;25.15;;;2.97;;
70414;SDS011;57837;52.064;113.478;2023-05-07T08:20:35;13.48;;;1.80;;
70414;SDS011;57837;52.064;113.478;2023-05-07T08:23:47;8.53;;;1.80;;
70414;SDS011;57837;52.064;113.478;2023-05-07T08:26:51;14.10;;;2.08;;
70414;SDS011;57837;52.064;113.478;2023-05-07T08:29:55;57.60;;;4.75;;
70414;SDS011;57837;52.064;113.478;2023-05-07T08:33:00;38.47;;;3.55;;
70414;SDS011;57837;52.064;113.478;2023-05-07T08:36:06;20.13;;;3.03;;
70414;SDS011;57837;52.064;113.478;2023-05-07T08:39:12;46.17;;;3.60;;
70414;SDS011;57837;52.064;113.478;2023-05-07T08:42:16;19.08;;;1.58;;
70414;SDS011;57837;52.064;113.478;2023-05-07T08:45:20;31.65;;;2.83;;
70414;SDS011;57837;52.064;113.478;2023-05-07T08:48:25;27.52;;;3.10;;
70414;SDS011;57837;52.064;113.478;2023-05-07T08:51:43;16.90;;;2.00;;
70414;SDS011;57837;52.064;113.478;2023-05-07T08:54:48;49.90;;;3.33;;
70414;SDS011;57837;52.064;113.478;2023-05-07T08:57:51;26.05;;;3.47;;
70414;SDS011;57837;52.064;113.478;2023-05-07T09:00:55;22.70;;;1.90;;
70414;SDS011;57837;52.064;113.478;2023-05-07T09:03:59;80.20;;;4.93;;
70414;SDS011;57837;52.064;113.478;2023-05-07T09:07:04;63.60;;;5.17;;
70414;SDS011;57837;52.064;113.478;2023-05-07T09:10:14;38.03;;;3.33;;
70414;SDS011;57837;52.064;113.478;2023-05-07T09:13:20;40.17;;;12.13;;
70414;SDS011;57837;52.064;113.478;2023-05-07T09:16:25;33.85;;;4.07;;
70414;SDS011;57837;52.064;113.478;2023-05-07T09:19:31;49.50;;;6.68;;
70414;SDS011;57837;52.064;113.478;2023-05-07T09:22:38;23.02;;;2.33;;
70414;SDS011;57837;52.064;113.478;2023-05-07T09:25:45;22.53;;;2.50;;
70414;SDS011;57837;52.064;113.478;2023-05-07T09:28:55;73.43;;;4.80;;
70414;SDS011;57837;52.064;113.478;2023-05-07T09:32:00;23.00;;;2.88;;
70414;SDS011;57837;52.064;113.478;2023-05-07T09:35:06;27.23;;;3.70;;
70414;SDS011;57837;52.064;113.478;2023-05-07T09:38:21;55.20;;;17.67;;
70414;SDS011;57837;52.064;113.478;2023-05-07T09:41:30;49.13;;;13.90;;
70414;SDS011;57837;52.064;113.478;2023-05-07T09:44:44;76.53;;;17.80;;
70414;SDS011;57837;52.064;113.478;2023-05-07T09:47:54;26.25;;;7.30;;
70414;SDS011;57837;52.064;113.478;2023-05-07T09:51:01;58.33;;;6.28;;
70414;SDS011;57837;52.064;113.478;2023-05-07T09:54:08;54.57;;;3.17;;
70414;SDS011;57837;52.064;113.478;2023-05-07T09:57:15;51.33;;;3.53;;
70414;SDS011;57837;52.064;113.478;2023-05-07T10:00:23;41.13;;;2.53;;
70414;SDS011;57837;52.064;113.478;2023-05-07T10:03:36;48.72;;;4.05;;
70414;SDS011;57837;52.064;113.478;2023-05-07T10:06:44;12.52;;;1.20;;
70414;SDS011;57837;52.064;113.478;2023-05-07T10:09:49;23.53;;;2.43;;
70414;SDS011;57837;52.064;113.478;2023-05-07T10:13:17;27.23;;;2.00;;
70414;SDS011;57837;52.064;113.478;2023-05-07T10:16:24;5.97;;;1.10;;
70414;SDS011;57837;52.064;113.478;2023-05-07T10:19:29;6.43;;;1.17;;
70414;SDS011;57837;52.064;113.478;2023-05-07T10:22:41;8.95;;;1.48;;
70414;SDS011;57837;52.064;113.478;2023-05-07T10:25:49;7.47;;;1.20;;
70414;SDS011;57837;52.064;113.478;2023-05-07T10:29:03;6.47;;;1.73;;
70414;SDS011;57837;52.064;113.478;2023-05-07T10:32:19;11.27;;;1.77;;
70414;SDS011;57837;52.064;113.478;2023-05-07T10:35:46;12.35;;;1.45;;
70414;SDS011;57837;52.064;113.478;2023-05-07T10:38:51;8.52;;;1.65;;
70414;SDS011;57837;52.064;113.478;2023-05-07T10:41:55;17.27;;;2.50;;
70414;SDS011;57837;52.064;113.478;2023-05-07T10:45:11;4.40;;;2.77;;
70414;SDS011;57837;52.064;113.478;2023-05-07T10:48:18;6.75;;;2.40;;
70414;SDS011;57837;52.064;113.478;2023-05-07T10:51:40;10.85;;;1.50;;
70414;SDS011;57837;52.064;113.478;2023-05-07T10:58:30;7.10;;;1.57;;
70414;SDS011;57837;52.064;113.478;2023-05-07T11:05:20;6.10;;;1.40;;
70414;SDS011;57837;52.064;113.478;2023-05-07T11:08:59;22.60;;;2.30;;
70414;SDS011;57837;52.064;113.478;2023-05-07T11:15:47;7.77;;;2.13;;
70414;SDS011;57837;52.064;113.478;2023-05-07T11:19:09;11.47;;;1.90;;
70414;SDS011;57837;52.064;113.478;2023-05-07T11:25:44;7.38;;;1.85;;
70414;SDS011;57837;52.064;113.478;2023-05-07T11:28:55;9.23;;;1.60;;
70414;SDS011;57837;52.064;113.478;2023-05-07T11:32:01;14.67;;;1.77;;
70414;SDS011;57837;52.064;113.478;2023-05-07T11:35:12;5.73;;;1.80;;
70414;SDS011;57837;52.064;113.478;2023-05-07T11:38:19;6.40;;;1.70;;
70414;SDS011;57837;52.064;113.478;2023-05-07T11:41:33;7.90;;;1.70;;
70414;SDS011;57837;52.064;113.478;2023-05-07T11:44:41;5.78;;;1.98;;
70414;SDS011;57837;52.064;113.478;2023-05-07T11:47:47;6.17;;;2.47;;
70414;SDS011;57837;52.064;113.478;2023-05-07T11:53:56;11.32;;;3.00;;
70414;SDS011;57837;52.064;113.478;2023-05-07T11:57:00;14.27;;;3.20;;
70414;SDS011;57837;52.064;113.478;2023-05-07T12:00:04;11.68;;;3.53;;
70414;SDS011;57837;52.064;113.478;2023-05-07T12:03:14;6.10;;;2.47;;
70414;SDS011;57837;52.064;113.478;2023-05-07T12:06:18;8.87;;;3.13;;
70414;SDS011;57837;52.064;113.478;2023-05-07T12:09:22;16.77;;;3.88;;
70414;SDS011;57837;52.064;113.478;2023-05-07T12:12:26;17.27;;;3.35;;
70414;SDS011;57837;52.064;113.478;2023-05-07T12:15:30;7.90;;;3.00;;
70414;SDS011;57837;52.064;113.478;2023-05-07T12:18:57;8.43;;;2.83;;
70414;SDS011;57837;52.064;113.478;2023-05-07T12:22:02;7.23;;;2.60;;
70414;SDS011;57837;52.064;113.478;2023-05-07T12:25:06;5.43;;;2.58;;
70414;SDS011;57837;52.064;113.478;2023-05-07T12:28:12;10.00;;;3.03;;
70414;SDS011;57837;52.064;113.478;2023-05-07T12:31:19;6.78;;;2.67;;
70414;SDS011;57837;52.064;113.478;2023-05-07T12:34:23;15.90;;;3.50;;
70414;SDS011;57837;52.064;113.478;2023-05-07T12:37:27;5.70;;;2.70;;
70414;SDS011;57837;52.064;113.478;2023-05-07T12:40:39;9.02;;;3.15;;
70414;SDS011;57837;52.064;113.478;2023-05-07T12:43:46;8.23;;;3.70;;
70414;SDS011;57837;52.064;113.478;2023-05-07T12:46:51;20.95;;;4.57;;
70414;SDS011;57837;52.064;113.478;2023-05-07T12:49:55;14.10;;;4.50;;
70414;SDS011;57837;52.064;113.478;2023-05-07T12:52:58;12.73;;;4.80;;
70414;SDS011;57837;52.064;113.478;2023-05-07T12:56:02;14.25;;;4.35;;
70414;SDS011;57837;52.064;113.478;2023-05-07T12:59:08;10.38;;;4.20;;
70414;SDS011;57837;52.064;113.478;2023-05-07T13:02:12;10.00;;;4.38;;
70414;SDS011;57837;52.064;113.478;2023-05-07T13:05:16;15.47;;;5.43;;
70414;SDS011;57837;52.064;113.478;2023-05-07T13:08:23;14.80;;;5.33;;
70414;SDS011;57837;52.064;113.478;2023-05-07T13:11:36;13.57;;;5.35;;
70414;SDS011;57837;52.064;113.478;2023-05-07T13:14:40;16.55;;;5.50;;
70414;SDS011;57837;52.064;113.478;2023-05-07T13:17:43;13.30;;;5.72;;
70414;SDS011;57837;52.064;113.478;2023-05-07T13:20:47;14.30;;;4.87;;
70414;SDS011;57837;52.064;113.478;2023-05-07T13:23:51;7.40;;;3.00;;
70414;SDS011;57837;52.064;113.478;2023-05-07T13:26:54;5.63;;;2.22;;
70414;SDS011;57837;52.064;113.478;2023-05-07T13:29:58;5.88;;;2.00;;
70414;SDS011;57837;52.064;113.478;2023-05-07T13:33:02;5.05;;;2.30;;
70414;SDS011;57837;52.064;113.478;2023-05-07T13:36:06;7.07;;;2.30;;
70414;SDS011;57837;52.064;113.478;2023-05-07T13:39:09;9.00;;;2.60;;
70414;SDS011;57837;52.064;113.478;2023-05-07T13:42:13;10.93;;;3.45;;
70414;SDS011;57837;52.064;113.478;2023-05-07T13:45:20;7.57;;;2.85;;
70414;SDS011;57837;52.064;113.478;2023-05-07T13:48:23;9.93;;;3.47;;
70414;SDS011;57837;52.064;113.478;2023-05-07T13:51:27;7.33;;;3.30;;
70414;SDS011;57837;52.064;113.478;2023-05-07T13:54:31;12.27;;;3.57;;
70414;SDS011;57837;52.064;113.478;2023-05-07T13:57:35;9.43;;;3.38;;
70414;SDS011;57837;52.064;113.478;2023-05-07T14:00:39;7.50;;;2.90;;
70414;SDS011;57837;52.064;113.478;2023-05-07T14:03:42;4.95;;;1.80;;
70414;SDS011;57837;52.064;113.478;2023-05-07T14:06:46;5.63;;;1.97;;
70414;SDS011;57837;52.064;113.478;2023-05-07T14:09:49;5.10;;;1.50;;
70414;SDS011;57837;52.064;113.478;2023-05-07T14:12:53;6.97;;;1.90;;
70414;SDS011;57837;52.064;113.478;2023-05-07T14:15:57;4.25;;;1.38;;
70414;SDS011;57837;52.064;113.478;2023-05-07T14:19:01;3.83;;;1.20;;
70414;SDS011;57837;52.064;113.478;2023-05-07T14:22:04;4.67;;;1.37;;
70414;SDS011;57837;52.064;113.478;2023-05-07T14:25:08;2.97;;;1.38;;
70414;SDS011;57837;52.064;113.478;2023-05-07T14:28:19;3.75;;;1.67;;
70414;SDS011;57837;52.064;113.478;2023-05-07T14:31:23;5.22;;;1.92;;
70414;SDS011;57837;52.064;113.478;2023-05-07T14:34:27;11.50;;;3.00;;
70414;SDS011;57837;52.064;113.478;2023-05-07T14:37:30;7.87;;;2.87;;
70414;SDS011;57837;52.064;113.478;2023-05-07T14:40:34;9.05;;;3.45;;
70414;SDS011;57837;52.064;113.478;2023-05-07T14:43:37;13.88;;;3.03;;
70414;SDS011;57837;52.064;113.478;2023-05-07T14:46:41;7.20;;;2.55;;
70414;SDS011;57837;52.064;113.478;2023-05-07T14:49:45;7.23;;;2.53;;
70414;SDS011;57837;52.064;113.478;2023-05-07T14:52:49;5.63;;;2.70;;
70414;SDS011;57837;52.064;113.478;2023-05-07T14:55:53;11.20;;;4.43;;
70414;SDS011;57837;52.064;113.478;2023-05-07T14:58:57;13.65;;;6.30;;
70414;SDS011;57837;52.064;113.478;2023-05-07T15:02:01;15.95;;;6.05;;
70414;SDS011;57837;52.064;113.478;2023-05-07T15:05:08;16.60;;;5.77;;
70414;SDS011;57837;52.064;113.478;2023-05-07T15:08:12;13.07;;;4.50;;
70414;SDS011;57837;52.064;113.478;2023-05-07T15:11:16;12.23;;;4.95;;
70414;SDS011;57837;52.064;113.478;2023-05-07T15:14:20;14.75;;;6.00;;
70414;SDS011;57837;52.064;113.478;2023-05-07T15:17:26;12.45;;;4.65;;
70414;SDS011;57837;52.064;113.478;2023-05-07T15:20:29;15.23;;;4.90;;
70414;SDS011;57837;52.064;113.478;2023-05-07T15:23:34;9.87;;;4.43;;
70414;SDS011;57837;52.064;113.478;2023-05-07T15:26:37;10.77;;;3.50;;
70414;SDS011;57837;52.064;113.478;2023-05-07T15:29:41;8.40;;;3.20;;
70414;SDS011;57837;52.064;113.478;2023-05-07T15:32:45;13.38;;;4.10;;
70414;SDS011;57837;52.064;113.478;2023-05-07T15:35:49;16.43;;;6.00;;
70414;SDS011;57837;52.064;113.478;2023-05-07T15:38:52;14.80;;;5.17;;
70414;SDS011;57837;52.064;113.478;2023-05-07T15:41:56;16.67;;;5.75;;
70414;SDS011;57837;52.064;113.478;2023-05-07T15:44:59;13.00;;;4.70;;
70414;SDS011;57837;52.064;113.478;2023-05-07T15:48:04;14.90;;;5.60;;
70414;SDS011;57837;52.064;113.478;2023-05-07T15:51:07;12.20;;;4.93;;
70414;SDS011;57837;52.064;113.478;2023-05-07T15:54:12;20.83;;;6.90;;
70414;SDS011;57837;52.064;113.478;2023-05-07T15:57:16;25.35;;;10.88;;
70414;SDS011;57837;52.064;113.478;2023-05-07T16:00:20;27.65;;;9.98;;
70414;SDS011;57837;52.064;113.478;2023-05-07T16:03:23;30.65;;;12.13;;
70414;SDS011;57837;52.064;113.478;2023-05-07T16:06:28;33.23;;;11.90;;
70414;SDS011;57837;52.064;113.478;2023-05-07T16:09:32;38.23;;;12.17;;
70414;SDS011;57837;52.064;113.478;2023-05-07T16:12:36;37.22;;;13.05;;
70414;SDS011;57837;52.064;113.478;2023-05-07T16:15:40;37.47;;;12.93;;
70414;SDS011;57837;52.064;113.478;2023-05-07T16:18:43;29.92;;;12.32;;
70414;SDS011;57837;52.064;113.478;2023-05-07T16:21:47;30.60;;;11.63;;
70414;SDS011;57837;52.064;113.478;2023-05-07T16:24:51;24.23;;;10.00;;
70414;SDS011;57837;52.064;113.478;2023-05-07T16:27:54;29.45;;;10.35;;
70414;SDS011;57837;52.064;113.478;2023-05-07T16:30:58;24.40;;;8.70;;
70414;SDS011;57837;52.064;113.478;2023-05-07T16:34:03;27.85;;;9.77;;
70414;SDS011;57837;52.064;113.478;2023-05-07T16:37:07;31.97;;;10.90;;
70414;SDS011;57837;52.064;113.478;2023-05-07T16:40:11;33.80;;;12.57;;
70414;SDS011;57837;52.064;113.478;2023-05-07T16:43:15;27.05;;;10.25;;
70414;SDS011;57837;52.064;113.478;2023-05-07T16:46:18;26.60;;;9.85;;
70414;SDS011;57837;52.064;113.478;2023-05-07T16:49:22;20.52;;;7.40;;
70414;SDS011;57837;52.064;113.478;2023-05-07T16:52:28;19.33;;;6.40;;
70414;SDS011;57837;52.064;113.478;2023-05-07T16:55:32;16.20;;;6.87;;
70414;SDS011;57837;52.064;113.478;2023-05-07T16:58:40;16.08;;;5.53;;
70414;SDS011;57837;52.064;113.478;2023-05-07T17:01:44;15.05;;;5.60;;
70414;SDS011;57837;52.064;113.478;2023-05-07T17:04:48;14.85;;;5.28;;
70414;SDS011;57837;52.064;113.478;2023-05-07T17:07:52;10.60;;;4.10;;
70414;SDS011;57837;52.064;113.478;2023-05-07T17:10:57;8.57;;;3.77;;
70414;SDS011;57837;52.064;113.478;2023-05-07T17:14:01;10.63;;;4.47;;
70414;SDS011;57837;52.064;113.478;2023-05-07T17:17:07;10.65;;;4.63;;
70414;SDS011;57837;52.064;113.478;2023-05-07T17:20:11;10.05;;;4.35;;
70414;SDS011;57837;52.064;113.478;2023-05-07T17:23:15;9.87;;;4.03;;
70414;SDS011;57837;52.064;113.478;2023-05-07T17:26:20;10.60;;;4.70;;
70414;SDS011;57837;52.064;113.478;2023-05-07T17:29:23;10.90;;;4.95;;
70414;SDS011;57837;52.064;113.478;2023-05-07T17:32:27;8.70;;;4.18;;
70414;SDS011;57837;52.064;113.478;2023-05-07T17:35:31;14.07;;;5.78;;
70414;SDS011;57837;52.064;113.478;2023-05-07T17:38:36;16.00;;;6.67;;
70414;SDS011;57837;52.064;113.478;2023-05-07T17:41:39;25.23;;;7.73;;
70414;SDS011;57837;52.064;113.478;2023-05-07T17:44:43;15.77;;;7.50;;
70414;SDS011;57837;52.064;113.478;2023-05-07T17:47:47;23.63;;;7.38;;
70414;SDS011;57837;52.064;113.478;2023-05-07T17:50:50;30.13;;;9.48;;
70414;SDS011;57837;52.064;113.478;2023-05-07T17:53:54;31.30;;;12.47;;
70414;SDS011;57837;52.064;113.478;2023-05-07T17:56:59;21.17;;;8.83;;
70414;SDS011;57837;52.064;113.478;2023-05-07T18:00:03;15.75;;;6.72;;
70414;SDS011;57837;52.064;113.478;2023-05-07T18:03:09;15.32;;;6.25;;
70414;SDS011;57837;52.064;113.478;2023-05-07T18:06:13;15.00;;;6.18;;
70414;SDS011;57837;52.064;113.478;2023-05-07T18:09:21;13.50;;;5.40;;